Time;durP1;ratioP1;P1;durP2;ratioP2;P2;SDS_P1;SDS_P2;PMS_P1;PMS_P2;Temp;Humidity;BMP_temperature;BMP_pressure;BME280_temperature;BME280_humidity;BME280_pressure;Samples;Min_cycle;Max_cycle;Signal;HPM_P1;HPM_P2
2022/10/31 05:30:05;;;;;;;3.17;1.97;;;13.10;88.50;;;;;;6108413;23;20051;31
2022/10/31 05:32:43;;;;;;;3.17;2.17;;;13.00;88.50;;;;;;4963188;28;20118;-78
2022/10/31 05:35:11;;;;;;;7.18;2.40;;;13.20;89.10;;;;;;4979860;28;20030;-78
2022/10/31 05:37:37;;;;;;;11.20;2.58;;;13.30;88.80;;;;;;4978880;28;20109;-78
2022/10/31 05:40:05;;;;;;;5.55;2.75;;;13.30;87.90;;;;;;4979811;28;20070;-78
2022/10/31 05:42:31;;;;;;;9.40;2.38;;;13.40;88.40;;;;;;4970283;28;20059;-78
2022/10/31 05:44:57;;;;;;;3.78;2.28;;;13.50;88.20;;;;;;4960590;28;20513;-78
2022/10/31 05:47:22;;;;;;;7.30;2.67;;;13.60;87.80;;;;;;4960383;28;20099;-77
2022/10/31 05:49:48;;;;;;;5.88;2.63;;;13.50;87.70;;;;;;4960409;28;20027;-78
2022/10/31 05:52:14;;;;;;;8.75;2.53;;;13.50;87.90;;;;;;4971272;28;20026;-78
2022/10/31 05:54:40;;;;;;;8.07;2.92;;;13.50;87.50;;;;;;4977977;28;20033;-78
2022/10/31 05:57:05;;;;;;;8.60;2.33;;;13.60;88.00;;;;;;4979180;28;20145;-78
2022/10/31 05:59:31;;;;;;;10.70;3.05;;;13.50;87.50;;;;;;4979544;28;20070;-78
2022/10/31 06:01:56;;;;;;;5.00;2.63;;;13.60;87.70;;;;;;4975265;28;20019;-77
2022/10/31 06:04:22;;;;;;;7.38;2.60;;;13.70;88.00;;;;;;4977399;28;20030;-77
2022/10/31 06:06:48;;;;;;;6.25;3.13;;;13.60;87.90;;;;;;4981348;28;20022;-81
2022/10/31 06:09:13;;;;;;;4.88;2.70;;;13.70;88.00;;;;;;4988864;28;20084;-82
2022/10/31 06:11:39;;;;;;;7.53;3.40;;;13.60;88.10;;;;;;4986398;28;20035;-79
2022/10/31 06:14:05;;;;;;;7.30;3.35;;;13.70;87.50;;;;;;4980223;28;20093;-83
2022/10/31 06:16:31;;;;;;;7.72;3.30;;;13.70;87.80;;;;;;4953966;28;20159;-80
2022/10/31 06:18:57;;;;;;;5.57;3.15;;;13.70;88.00;;;;;;4969033;28;20054;-84
2022/10/31 06:21:23;;;;;;;9.05;4.30;;;13.70;87.80;;;;;;4978061;28;20078;-82
2022/10/31 06:23:49;;;;;;;9.85;2.95;;;13.70;88.10;;;;;;4980976;28;20062;-80
2022/10/31 06:26:14;;;;;;;7.45;3.47;;;13.70;87.60;;;;;;4960388;29;20103;-85
2022/10/31 06:28:40;;;;;;;7.78;3.22;;;13.70;88.30;;;;;;4960428;29;20027;-88
2022/10/31 06:31:06;;;;;;;9.73;3.53;;;13.80;88.10;;;;;;4959643;28;20050;-89
2022/10/31 06:33:32;;;;;;;13.18;3.55;;;13.80;87.80;;;;;;4962355;28;20054;-84
2022/10/31 06:35:58;;;;;;;9.85;3.58;;;13.70;88.20;;;;;;4961102;28;20086;-84
2022/10/31 06:38:26;;;;;;;6.45;3.72;;;13.70;88.30;;;;;;4977958;28;20556;-90
2022/10/31 06:40:52;;;;;;;9.45;3.63;;;13.80;88.40;;;;;;4976796;28;20106;-86
2022/10/31 06:43:18;;;;;;;14.02;4.40;;;13.80;88.30;;;;;;4977553;28;20405;-86
2022/10/31 06:45:43;;;;;;;12.70;3.55;;;13.80;88.00;;;;;;4976678;28;20031;-82
2022/10/31 06:48:09;;;;;;;12.93;3.95;;;13.70;88.30;;;;;;4981238;28;20150;-88
2022/10/31 06:50:35;;;;;;;12.30;3.72;;;13.70;88.60;;;;;;4958034;28;20096;-82
2022/10/31 06:53:02;;;;;;;4.65;3.10;;;13.50;88.90;;;;;;4945634;28;20509;-86
2022/10/31 06:55:28;;;;;;;5.32;2.83;;;13.60;89.30;;;;;;4958928;28;20031;-89
2022/10/31 06:57:59;;;;;;;6.53;3.20;;;13.80;89.20;;;;;;4978174;28;20493;-87
2022/10/31 07:00:28;;;;;;;4.28;2.30;;;13.70;88.80;;;;;;4961490;28;20114;-84
2022/10/31 07:02:57;;;;;;;4.18;2.05;;;13.70;89.10;;;;;;4977704;28;20035;-83
2022/10/31 07:05:23;;;;;;;13.25;3.00;;;13.70;88.90;;;;;;4979495;28;20031;-88
2022/10/31 07:08:03;;;;;;;8.02;3.10;;;13.60;89.30;;;;;;4962007;28;20114;-88
2022/10/31 07:10:31;;;;;;;8.93;2.58;;;13.70;89.50;;;;;;4963646;28;20045;-89
2022/10/31 07:13:02;;;;;;;9.27;2.85;;;13.70;89.00;;;;;;4978279;28;20031;-89
2022/10/31 07:15:29;;;;;;;5.65;2.70;;;13.70;89.20;;;;;;4978442;28;20141;-87
2022/10/31 07:18:01;;;;;;;8.32;3.28;;;13.80;89.10;;;;;;4990314;28;20019;-88
2022/10/31 07:20:27;;;;;;;4.72;3.05;;;13.80;88.90;;;;;;4957885;28;20034;-87
2022/10/31 07:22:53;;;;;;;5.60;2.90;;;13.90;88.90;;;;;;4976755;28;20030;-88
2022/10/31 07:25:19;;;;;;;5.78;2.97;;;13.90;88.50;;;;;;4981233;28;20060;-87
2022/10/31 07:27:44;;;;;;;6.60;2.90;;;13.90;88.90;;;;;;4978670;28;20038;-89
2022/10/31 07:30:12;;;;;;;5.80;3.15;;;14.00;88.40;;;;;;4959450;28;20114;-86
2022/10/31 07:32:42;;;;;;;7.22;2.85;;;13.90;88.60;;;;;;4960665;28;20485;-89
2022/10/31 07:35:10;;;;;;;6.82;3.70;;;13.90;88.70;;;;;;4959634;28;20505;-89
2022/10/31 07:37:36;;;;;;;8.82;3.20;;;14.00;88.70;;;;;;4957851;28;20118;-90
2022/10/31 07:40:03;;;;;;;6.72;2.75;;;14.00;88.40;;;;;;4963336;28;20019;-88
2022/10/31 07:42:28;;;;;;;5.55;2.88;;;14.00;88.60;;;;;;4952018;28;20085;-88
2022/10/31 07:44:54;;;;;;;5.03;2.58;;;14.00;88.10;;;;;;4977123;28;20026;-89
2022/10/31 07:47:20;;;;;;;6.05;3.17;;;14.20;88.00;;;;;;4976301;28;20034;-87
2022/10/31 07:49:45;;;;;;;4.40;2.78;;;14.20;88.00;;;;;;4974171;28;20046;-88
2022/10/31 07:52:11;;;;;;;4.78;3.10;;;14.30;88.00;;;;;;4959081;28;20023;-88
2022/10/31 07:54:36;;;;;;;5.50;2.88;;;14.20;87.50;;;;;;4959028;28;20031;-87
2022/10/31 07:57:02;;;;;;;5.47;3.00;;;14.30;87.70;;;;;;4956424;28;20315;-89
2022/10/31 07:59:28;;;;;;;6.28;3.28;;;14.30;87.40;;;;;;4978008;28;20389;-88
2022/10/31 08:01:53;;;;;;;7.13;3.33;;;14.30;87.50;;;;;;4977014;28;20023;-87
2022/10/31 08:04:20;;;;;;;6.28;2.90;;;14.40;87.40;;;;;;4960097;28;20043;-85
2022/10/31 08:06:48;;;;;;;6.57;3.38;;;14.50;87.50;;;;;;4967697;28;20038;-83
2022/10/31 08:09:13;;;;;;;8.68;3.63;;;14.50;87.20;;;;;;4960002;28;20039;-85
2022/10/31 08:11:39;;;;;;;7.25;3.63;;;14.50;87.10;;;;;;4979847;28;20030;-85
2022/10/31 08:14:05;;;;;;;6.18;3.60;;;14.50;87.00;;;;;;4989276;28;20019;-85
2022/10/31 08:16:30;;;;;;;8.23;3.35;;;14.60;87.00;;;;;;4957537;28;20027;-83
2022/10/31 08:18:56;;;;;;;9.77;3.67;;;14.60;86.90;;;;;;4975111;28;20043;-86
2022/10/31 08:21:25;;;;;;;6.45;3.22;;;14.70;86.80;;;;;;4984528;28;20034;-78
2022/10/31 08:23:50;;;;;;;9.52;3.58;;;14.70;86.80;;;;;;4968348;28;20033;-78
2022/10/31 08:26:16;;;;;;;6.68;3.38;;;14.70;86.50;;;;;;4990814;28;20412;-77
2022/10/31 08:28:42;;;;;;;7.25;2.90;;;14.80;86.70;;;;;;4987673;28;20366;-79
2022/10/31 08:31:08;;;;;;;8.68;3.30;;;14.80;86.60;;;;;;4973755;28;20687;-87
2022/10/31 08:33:34;;;;;;;6.30;3.00;;;14.80;86.50;;;;;;4974037;28;20374;-88
2022/10/31 08:36:00;;;;;;;6.30;3.28;;;14.80;86.10;;;;;;4954571;28;20042;-87
2022/10/31 08:38:25;;;;;;;6.90;3.70;;;14.80;86.50;;;;;;4956744;28;20625;-88
2022/10/31 08:40:51;;;;;;;7.57;3.75;;;14.80;86.40;;;;;;4974513;28;20019;-88
2022/10/31 08:43:18;;;;;;;6.13;3.50;;;14.80;86.50;;;;;;4975116;28;20031;-87
2022/10/31 08:45:47;;;;;;;5.05;3.45;;;14.80;86.60;;;;;;4958138;28;20027;-86
2022/10/31 08:48:14;;;;;;;5.00;3.53;;;14.80;86.50;;;;;;4963665;28;20039;-87
2022/10/31 08:50:41;;;;;;;7.95;3.55;;;14.80;86.40;;;;;;4939058;28;20077;-87
2022/10/31 08:53:15;;;;;;;5.72;3.28;;;14.80;86.50;;;;;;4957030;28;20486;-88
2022/10/31 08:55:41;;;;;;;4.95;3.03;;;14.80;86.40;;;;;;4952855;28;20051;-88
2022/10/31 08:58:10;;;;;;;8.38;3.97;;;14.80;86.30;;;;;;4976471;28;20034;-88
2022/10/31 09:00:36;;;;;;;7.32;3.50;;;14.90;86.00;;;;;;4959848;28;20397;-87
2022/10/31 09:03:05;;;;;;;5.57;3.20;;;14.80;86.20;;;;;;4975986;28;20089;-87
2022/10/31 09:05:32;;;;;;;6.00;3.70;;;14.90;86.00;;;;;;4959586;28;20022;-87
2022/10/31 09:07:59;;;;;;;7.03;3.55;;;14.90;86.10;;;;;;4958876;28;20433;-86
2022/10/31 09:10:26;;;;;;;6.22;3.45;;;15.00;86.00;;;;;;4976727;28;20105;-87
2022/10/31 09:13:06;;;;;;;7.97;3.33;;;15.00;85.80;;;;;;4959027;28;20038;-86
2022/10/31 09:15:32;;;;;;;6.50;2.92;;;15.00;85.90;;;;;;4976886;28;20018;-87
2022/10/31 09:17:58;;;;;;;11.60;3.88;;;14.90;85.90;;;;;;4958349;28;20035;-87
2022/10/31 09:20:24;;;;;;;3.83;2.85;;;15.00;86.00;;;;;;4964227;28;20044;-87
2022/10/31 09:22:59;;;;;;;5.82;3.33;;;15.00;86.10;;;;;;4977115;28;20600;-87
2022/10/31 09:25:26;;;;;;;11.73;4.35;;;14.90;86.10;;;;;;4976624;28;20046;-88
2022/10/31 09:27:59;;;;;;;5.60;3.30;;;14.90;85.90;;;;;;4958720;28;20382;-88
2022/10/31 09:30:26;;;;;;;5.95;3.50;;;14.90;86.10;;;;;;4976764;28;20027;-88
2022/10/31 09:33:04;;;;;;;6.90;4.35;;;14.90;86.30;;;;;;4958585;28;20061;-87
2022/10/31 09:35:30;;;;;;;6.40;3.88;;;14.90;86.30;;;;;;4959670;28;20023;-86
2022/10/31 09:37:56;;;;;;;6.53;4.07;;;14.90;86.40;;;;;;4959636;28;20065;-87
2022/10/31 09:40:29;;;;;;;6.22;3.45;;;14.90;86.30;;;;;;4976797;28;20378;-86
2022/10/31 09:43:11;;;;;;;10.25;4.40;;;14.90;86.60;;;;;;4959033;28;20034;-87
2022/10/31 09:45:55;;;;;;;14.32;4.30;;;14.90;87.00;;;;;;4976571;28;20074;-87
2022/10/31 09:48:50;;;;;;;6.82;3.60;;;14.80;87.20;;;;;;4954978;29;20039;-86
2022/10/31 09:51:19;;;;;;;4.60;3.38;;;14.90;87.30;;;;;;4938625;29;20039;-87
2022/10/31 09:53:59;;;;;;;13.70;4.85;;;15.00;87.30;;;;;;4940343;29;20032;-87
2022/10/31 09:56:27;;;;;;;10.00;5.10;;;15.00;87.30;;;;;;4957432;28;20083;-87
2022/10/31 09:59:00;;;;;;;7.95;4.80;;;15.00;87.10;;;;;;4959763;28;20031;-88
2022/10/31 10:01:44;;;;;;;11.48;5.47;;;15.00;87.20;;;;;;4975695;28;20050;-86
2022/10/31 10:04:40;;;;;;;9.23;4.78;;;15.10;87.10;;;;;;4976317;28;20027;-87
2022/10/31 10:07:31;;;;;;;12.23;6.07;;;15.10;86.90;;;;;;4976418;28;20050;-87
2022/10/31 10:10:09;;;;;;;11.50;6.07;;;15.20;87.10;;;;;;4958299;28;20030;-86
2022/10/31 10:12:56;;;;;;;10.23;5.60;;;15.20;86.70;;;;;;4959175;28;20536;-88
2022/10/31 10:15:59;;;;;;;9.20;4.75;;;15.30;86.80;;;;;;4975454;28;20105;-88
2022/10/31 10:19:01;;;;;;;10.52;5.55;;;15.50;86.40;;;;;;4977785;28;20038;-87
2022/10/31 10:21:39;;;;;;;10.73;5.05;;;15.60;86.10;;;;;;4979960;28;20069;-89
2022/10/31 10:24:26;;;;;;;9.45;5.05;;;15.60;86.20;;;;;;4982162;28;20409;-87
2022/10/31 10:27:14;;;;;;;11.05;5.32;;;15.70;86.10;;;;;;4961109;28;20073;-87
2022/10/31 10:30:20;;;;;;;8.48;4.97;;;15.60;86.00;;;;;;4961689;28;20405;-87
2022/10/31 10:32:50;;;;;;;8.68;5.00;;;15.60;86.10;;;;;;4966259;28;20043;-87
2022/10/31 10:35:15;;;;;;;;;;;15.70;86.10;;;;;;4961258;28;20023;-86
2022/10/31 10:37:44;;;;;;;15.02;5.93;;;15.70;85.70;;;;;;4979584;28;19910;-88
2022/10/31 10:40:19;;;;;;;13.10;6.20;;;15.70;85.70;;;;;;4953457;28;20119;-88
2022/10/31 10:43:23;;;;;;;10.65;5.90;;;15.80;86.00;;;;;;4962028;28;20528;-87
2022/10/31 10:49:18;;;;;;;9.95;5.80;;;16.40;85.10;;;;;;4960119;28;20405;-87
2022/10/31 10:51:51;;;;;;;9.70;4.72;;;16.50;84.40;;;;;;4943385;28;20086;-88
2022/10/31 10:54:56;;;;;;;13.32;5.78;;;16.50;83.90;;;;;;4958633;29;20030;-89
2022/10/31 10:57:28;;;;;;;10.65;5.97;;;16.40;84.20;;;;;;4975623;28;20045;-88
2022/10/31 10:59:54;;;;;;;12.40;5.18;;;16.40;84.30;;;;;;4961840;28;20038;-87
2022/10/31 11:02:25;;;;;;;9.48;5.65;;;16.50;84.30;;;;;;4978063;28;20677;-88
2022/10/31 11:04:56;;;;;;;13.73;6.80;;;16.50;84.20;;;;;;4961937;28;20034;-89
2022/10/31 11:07:22;;;;;;;8.73;5.63;;;16.50;84.30;;;;;;4961927;28;20033;-87
2022/10/31 11:09:48;;;;;;;14.85;7.10;;;16.50;84.30;;;;;;4977662;28;20393;-85
2022/10/31 11:12:30;;;;;;;11.43;6.53;;;16.40;84.00;;;;;;4961310;28;20125;-87
2022/10/31 11:15:01;;;;;;;11.98;6.88;;;16.50;84.50;;;;;;4979197;28;20023;-88
2022/10/31 11:17:36;;;;;;;11.60;6.97;;;16.30;84.30;;;;;;4971400;28;20034;-87
2022/10/31 11:20:20;;;;;;;14.40;7.20;;;16.40;84.60;;;;;;4970355;28;20110;-85
2022/10/31 11:22:47;;;;;;;11.05;6.90;;;16.40;84.30;;;;;;4978709;28;20054;-87
2022/10/31 11:25:19;;;;;;;11.45;6.72;;;16.30;84.10;;;;;;4960469;28;20546;-88
2022/10/31 11:27:45;;;;;;;11.55;6.28;;;16.40;84.50;;;;;;4978625;28;20565;-88
2022/10/31 11:30:13;;;;;;;11.30;7.43;;;16.50;84.40;;;;;;4978034;28;20019;-88
2022/10/31 11:32:53;;;;;;;14.95;7.72;;;16.40;84.20;;;;;;4960106;28;20086;-87
2022/10/31 11:35:22;;;;;;;11.70;8.15;;;16.40;84.20;;;;;;4978576;28;20065;-86
2022/10/31 11:37:50;;;;;;;11.52;7.15;;;16.30;84.40;;;;;;4961280;28;20035;-88
2022/10/31 11:40:20;;;;;;;11.52;7.22;;;16.30;84.70;;;;;;4977586;28;20038;-88
2022/10/31 11:42:46;;;;;;;13.00;8.60;;;16.30;84.60;;;;;;4961046;28;20026;-87
2022/10/31 11:45:33;;;;;;;11.85;7.40;;;16.40;84.80;;;;;;4961035;28;20043;-88
2022/10/31 11:48:02;;;;;;;12.35;7.55;;;16.40;84.50;;;;;;4977245;28;20026;-88
2022/10/31 11:50:36;;;;;;;12.93;8.35;;;16.50;84.80;;;;;;4978207;28;20023;-89
2022/10/31 11:53:03;;;;;;;15.38;8.98;;;16.50;84.70;;;;;;4960829;28;20026;-89
2022/10/31 11:55:33;;;;;;;15.25;8.27;;;16.50;84.70;;;;;;4959684;28;21715;-87
2022/10/31 11:57:58;;;;;;;14.20;8.02;;;16.50;84.70;;;;;;4961084;28;20485;-87
2022/10/31 12:00:34;;;;;;;16.60;8.40;;;16.40;84.90;;;;;;4975847;28;20035;-89
2022/10/31 12:03:18;;;;;;;16.30;8.52;;;16.40;85.10;;;;;;4961086;28;20462;-88
2022/10/31 12:05:47;;;;;;;12.13;7.55;;;16.40;85.50;;;;;;4977088;28;20032;-89
2022/10/31 12:08:13;;;;;;;15.10;8.57;;;16.50;85.20;;;;;;4973663;28;20050;-86
2022/10/31 12:11:20;;;;;;;15.32;8.93;;;16.50;85.30;;;;;;4960631;28;20022;-89
2022/10/31 12:14:10;;;;;;;14.63;8.85;;;16.70;85.40;;;;;;4982932;28;20078;-88
2022/10/31 12:16:53;;;;;;;17.20;9.25;;;16.70;85.20;;;;;;4997249;28;20113;-89
2022/10/31 12:19:37;;;;;;;17.35;9.88;;;16.80;85.00;;;;;;4970986;28;20039;-89
2022/10/31 12:22:15;;;;;;;17.02;8.93;;;16.90;84.70;;;;;;4997480;28;20216;-89
2022/10/31 12:24:59;;;;;;;16.15;8.00;;;16.90;84.70;;;;;;4997217;28;20583;-88
2022/10/31 12:27:31;;;;;;;20.25;9.68;;;17.00;84.70;;;;;;4966257;28;20122;-90
2022/10/31 12:30:15;;;;;;;14.23;8.52;;;17.10;84.70;;;;;;4960180;28;20033;-88
2022/10/31 12:33:09;;;;;;;18.83;9.02;;;17.00;84.30;;;;;;4976941;28;20042;-88
2022/10/31 12:35:49;;;;;;;17.60;8.73;;;17.00;84.70;;;;;;4942874;28;20154;-87
2022/10/31 12:38:30;;;;;;;18.10;8.55;;;17.10;84.60;;;;;;4959915;28;20034;-88
2022/10/31 12:41:14;;;;;;;13.57;8.18;;;17.10;84.50;;;;;;4959442;28;20129;-88
2022/10/31 12:43:48;;;;;;;12.90;7.38;;;17.20;84.50;;;;;;4959383;28;20062;-88
2022/10/31 12:46:32;;;;;;;14.40;9.10;;;17.20;84.40;;;;;;4959286;28;20050;-88
2022/10/31 12:49:03;;;;;;;11.85;8.05;;;17.30;84.20;;;;;;4958519;28;20027;-88
2022/10/31 12:51:35;;;;;;;24.27;8.90;;;17.30;84.20;;;;;;4959137;28;20485;-88
2022/10/31 12:54:22;;;;;;;22.83;9.25;;;17.30;84.10;;;;;;4958790;28;20027;-88
2022/10/31 12:57:11;;;;;;;15.93;9.07;;;17.40;84.10;;;;;;4958903;28;20059;-87
2022/10/31 12:59:44;;;;;;;16.15;8.85;;;17.40;84.10;;;;;;4957965;28;20074;-88
2022/10/31 13:02:29;;;;;;;15.13;9.32;;;17.40;84.20;;;;;;4958999;28;20133;-88
2022/10/31 13:05:06;;;;;;;16.58;9.10;;;17.40;84.20;;;;;;4957821;28;20390;-88
2022/10/31 13:07:47;;;;;;;15.75;9.02;;;17.50;84.10;;;;;;4976317;28;20495;-87
2022/10/31 13:10:26;;;;;;;17.13;9.32;;;17.50;84.10;;;;;;4974649;28;20023;-87
2022/10/31 13:12:58;;;;;;;15.68;9.07;;;17.60;84.30;;;;;;4974486;28;20564;-87
2022/10/31 13:15:27;;;;;;;14.25;8.15;;;17.60;84.30;;;;;;4976123;28;20039;-87
2022/10/31 13:18:04;;;;;;;15.98;9.15;;;17.60;84.20;;;;;;4974850;28;20023;-89
2022/10/31 13:20:38;;;;;;;15.88;9.95;;;17.70;84.20;;;;;;4958654;28;20070;-88
2022/10/31 13:23:20;;;;;;;15.98;9.38;;;17.80;84.20;;;;;;4975908;28;20023;-88
2022/10/31 13:25:52;;;;;;;15.73;9.35;;;17.90;84.00;;;;;;4958153;28;20078;-88
2022/10/31 13:28:34;;;;;;;17.67;9.30;;;17.90;83.90;;;;;;4975887;28;20883;-88
2022/10/31 13:30:59;;;;;;;16.98;9.98;;;17.90;84.10;;;;;;4974587;28;20569;-87
2022/10/31 13:33:38;;;;;;;21.92;9.80;;;17.80;84.20;;;;;;4975444;28;20030;-87
2022/10/31 13:36:23;;;;;;;20.70;9.15;;;17.80;84.30;;;;;;4976207;28;20019;-88
2022/10/31 13:38:57;;;;;;;20.90;9.85;;;17.90;84.40;;;;;;4950700;29;20035;-88
2022/10/31 13:41:41;;;;;;;17.48;9.02;;;17.90;84.30;;;;;;4939507;29;20035;-89
2022/10/31 13:44:25;;;;;;;18.17;9.77;;;17.90;84.40;;;;;;4957071;28;20031;-88
2022/10/31 13:46:57;;;;;;;16.00;9.18;;;17.90;84.40;;;;;;4975948;28;20039;-88
2022/10/31 13:49:28;;;;;;;20.45;9.30;;;17.90;84.60;;;;;;4957574;28;20038;-87
2022/10/31 13:52:16;;;;;;;15.45;9.48;;;17.90;84.60;;;;;;4975731;28;20070;-87
2022/10/31 13:54:44;;;;;;;17.48;9.27;;;17.90;84.60;;;;;;4978968;28;20677;-86
2022/10/31 13:57:13;;;;;;;18.73;9.60;;;17.90;84.70;;;;;;4962132;28;20031;-86
2022/10/31 13:59:39;;;;;;;15.60;8.93;;;17.90;84.70;;;;;;4978811;28;20160;-88
2022/10/31 14:02:16;;;;;;;22.92;8.98;;;17.90;84.60;;;;;;4979279;28;20026;-87
2022/10/31 14:05:01;;;;;;;22.45;9.73;;;17.90;84.70;;;;;;4960906;28;20019;-88
2022/10/31 14:07:28;;;;;;;17.80;9.52;;;17.90;84.70;;;;;;4979319;28;20121;-86
2022/10/31 14:10:05;;;;;;;13.95;8.93;;;17.90;84.70;;;;;;4979092;28;20125;-86
2022/10/31 14:12:42;;;;;;;16.52;8.82;;;17.90;84.70;;;;;;4971666;28;20114;-87
2022/10/31 14:15:24;;;;;;;12.45;8.50;;;17.90;84.70;;;;;;4942539;29;20394;-89
2022/10/31 14:17:58;;;;;;;13.95;8.52;;;18.00;84.70;;;;;;4960530;28;20041;-89
2022/10/31 14:20:35;;;;;;;17.92;8.48;;;17.90;84.70;;;;;;4957209;28;20497;-87
2022/10/31 14:23:40;;;;;;;17.05;8.85;;;17.90;84.90;;;;;;4947049;28;20039;-88
2022/10/31 14:26:28;;;;;;;13.52;8.23;;;17.90;84.80;;;;;;4961596;28;20023;-87
2022/10/31 14:29:15;;;;;;;13.85;9.20;;;18.00;84.60;;;;;;4961679;28;20038;-88
2022/10/31 14:32:10;;;;;;;13.20;8.30;;;18.00;84.60;;;;;;4941529;29;20249;-89
2022/10/31 14:34:42;;;;;;;16.00;8.05;;;18.00;84.30;;;;;;4953157;28;20059;-88
2022/10/31 14:37:41;;;;;;;15.73;8.10;;;18.00;84.30;;;;;;4956978;29;20030;-89
2022/10/31 14:40:27;;;;;;;14.63;7.40;;;18.00;84.20;;;;;;4941951;29;20095;-86
2022/10/31 14:42:52;;;;;;;13.45;7.22;;;18.00;83.80;;;;;;4942506;29;20020;-89
2022/10/31 14:45:30;;;;;;;11.60;6.95;;;18.10;83.60;;;;;;4959987;28;20042;-85
2022/10/31 14:48:21;;;;;;;10.85;6.90;;;18.10;82.70;;;;;;4961028;28;20121;-85
2022/10/31 14:50:59;;;;;;;11.52;6.45;;;18.10;82.70;;;;;;4961367;28;20031;-85
2022/10/31 14:53:46;;;;;;;11.82;6.90;;;18.10;82.20;;;;;;4977546;28;20572;-87
2022/10/31 14:56:18;;;;;;;12.63;6.47;;;18.10;82.40;;;;;;4961053;28;20054;-83
2022/10/31 14:58:46;;;;;;;14.40;7.22;;;18.10;82.10;;;;;;4978098;28;20027;-86
2022/10/31 15:01:21;;;;;;;9.50;6.15;;;18.00;82.50;;;;;;4977432;28;20058;-89
2022/10/31 15:03:47;;;;;;;13.60;6.88;;;18.00;82.90;;;;;;4978303;28;20022;-88
2022/10/31 15:06:16;;;;;;;14.90;6.28;;;18.00;83.10;;;;;;4960261;28;20041;-85
2022/10/31 15:08:49;;;;;;;10.97;5.43;;;18.00;82.90;;;;;;4960014;28;20034;-86
2022/10/31 15:11:20;;;;;;;9.25;5.93;;;18.00;81.70;;;;;;4977961;28;20023;-86
2022/10/31 15:13:48;;;;;;;9.43;5.90;;;17.90;81.60;;;;;;4977997;28;20027;-86
2022/10/31 15:16:18;;;;;;;12.40;6.03;;;17.90;81.80;;;;;;4954046;29;20031;-85
2022/10/31 15:18:53;;;;;;;14.40;6.18;;;17.90;81.70;;;;;;4941481;29;20031;-86
2022/10/31 15:21:21;;;;;;;12.90;6.70;;;17.90;82.00;;;;;;4941324;29;20042;-86
2022/10/31 15:23:49;;;;;;;7.93;4.60;;;17.90;81.90;;;;;;4950013;29;20039;-88
2022/10/31 15:26:18;;;;;;;9.10;5.68;;;17.90;81.60;;;;;;4941153;29;20082;-87
2022/10/31 15:28:44;;;;;;;8.82;6.00;;;17.90;81.70;;;;;;4941041;29;20034;-86
2022/10/31 15:31:16;;;;;;;9.40;3.33;;;17.90;81.60;;;;;;4971631;28;20047;-86
2022/10/31 15:33:46;;;;;;;5.22;3.17;;;17.80;80.00;;;;;;4959905;28;20039;-86
2022/10/31 15:36:20;;;;;;;8.35;3.40;;;17.70;79.60;;;;;;4977810;28;20125;-85
2022/10/31 15:38:47;;;;;;;5.53;3.28;;;17.60;80.30;;;;;;4960952;28;20050;-88
2022/10/31 15:41:27;;;;;;;8.35;3.30;;;17.50;80.70;;;;;;4940802;29;20126;-87
2022/10/31 15:43:54;;;;;;;7.70;3.33;;;17.40;80.90;;;;;;4957989;28;20129;-86
2022/10/31 15:46:20;;;;;;;5.63;3.55;;;17.40;81.20;;;;;;4963901;28;20027;-85
2022/10/31 15:48:47;;;;;;;5.15;3.45;;;17.40;81.20;;;;;;4977134;28;20042;-86
2022/10/31 15:51:13;;;;;;;7.38;3.65;;;17.40;80.80;;;;;;4959826;28;20051;-87
2022/10/31 15:53:47;;;;;;;9.70;4.97;;;17.30;81.20;;;;;;4959483;28;20054;-87
2022/10/31 15:56:20;;;;;;;5.97;4.00;;;17.30;80.80;;;;;;4975608;28;20151;-87
2022/10/31 15:58:52;;;;;;;3.42;2.70;;;17.30;81.10;;;;;;4959339;28;20027;-86
2022/10/31 16:01:24;;;;;;;3.33;2.10;;;17.20;80.70;;;;;;4977237;28;20563;-87
2022/10/31 16:04:10;;;;;;;4.20;2.25;;;17.20;80.30;;;;;;4959040;28;20031;-89
2022/10/31 16:06:36;;;;;;;4.32;2.05;;;17.20;80.40;;;;;;4977593;28;20046;-87
2022/10/31 16:09:04;;;;;;;4.78;2.03;;;17.10;80.20;;;;;;4959012;28;20027;-87
2022/10/31 16:11:36;;;;;;;5.70;2.60;;;17.10;80.30;;;;;;4960650;28;20023;-89
2022/10/31 16:14:24;;;;;;;7.57;2.22;;;17.10;80.00;;;;;;4977759;28;20019;-86
2022/10/31 16:16:53;;;;;;;7.32;2.03;;;17.10;80.20;;;;;;4976722;28;20030;-88
2022/10/31 16:19:32;;;;;;;4.88;2.00;;;17.10;80.20;;;;;;4960379;28;20038;-87
2022/10/31 16:22:23;;;;;;;6.28;2.30;;;17.00;80.10;;;;;;4976852;28;20502;-86
2022/10/31 16:25:00;;;;;;;4.95;2.00;;;17.10;80.20;;;;;;4962348;28;20023;-88
2022/10/31 16:27:31;;;;;;;5.10;2.15;;;17.10;80.60;;;;;;4958438;28;20038;-87
2022/10/31 16:30:01;;;;;;;7.25;2.25;;;17.00;80.60;;;;;;4958172;28;20394;-85
2022/10/31 16:32:29;;;;;;;5.45;2.33;;;17.00;81.10;;;;;;4959241;28;20190;-86
2022/10/31 16:35:07;;;;;;;3.72;2.22;;;17.00;81.40;;;;;;4958268;28;20031;-86
2022/10/31 16:37:33;;;;;;;10.45;2.60;;;16.90;81.60;;;;;;4940804;29;20038;-81
2022/10/31 16:39:59;;;;;;;5.57;2.25;;;16.90;81.90;;;;;;4953395;29;20038;-81
2022/10/31 16:42:25;;;;;;;5.65;2.10;;;16.90;82.00;;;;;;4962222;28;20042;-81
2022/10/31 16:44:51;;;;;;;3.28;1.90;;;16.90;82.30;;;;;;4977196;28;20031;-84
2022/10/31 16:47:17;;;;;;;4.25;2.42;;;16.90;82.60;;;;;;4960121;28;20556;-88
2022/10/31 16:49:46;;;;;;;8.15;2.60;;;16.80;82.80;;;;;;4977161;28;20034;-81
2022/10/31 16:52:12;;;;;;;8.50;2.55;;;16.90;82.80;;;;;;4976888;28;20035;-84
2022/10/31 16:54:38;;;;;;;7.28;2.33;;;16.90;82.90;;;;;;4959815;28;20604;-86
2022/10/31 16:57:09;;;;;;;6.20;2.35;;;16.90;83.10;;;;;;4978712;28;20023;-85
2022/10/31 16:59:35;;;;;;;4.68;2.15;;;16.90;83.00;;;;;;4975718;28;20034;-87
2022/10/31 17:02:03;;;;;;;4.45;2.70;;;16.90;83.20;;;;;;4975016;28;20478;-80
2022/10/31 17:04:28;;;;;;;7.57;2.67;;;16.90;83.20;;;;;;4969520;28;20031;-88
2022/10/31 17:06:54;;;;;;;5.22;2.15;;;16.90;83.20;;;;;;4977269;28;20569;-88
2022/10/31 17:09:20;;;;;;;6.75;2.65;;;16.90;83.30;;;;;;4980170;28;20034;-90
2022/10/31 17:11:49;;;;;;;6.13;2.45;;;16.90;83.50;;;;;;4957541;28;21922;-90
2022/10/31 17:14:16;;;;;;;6.18;2.45;;;16.90;83.50;;;;;;4941130;29;20118;-83
2022/10/31 17:16:41;;;;;;;7.88;2.70;;;16.90;83.60;;;;;;4957436;29;20031;-85
2022/10/31 17:19:10;;;;;;;7.13;3.25;;;16.90;83.70;;;;;;4959798;28;20038;-86
2022/10/31 17:21:36;;;;;;;8.13;2.20;;;16.90;83.70;;;;;;4951477;28;20038;-82
2022/10/31 17:24:02;;;;;;;11.35;3.55;;;16.90;83.70;;;;;;4970344;28;20037;-82
2022/10/31 17:26:28;;;;;;;6.30;2.55;;;16.90;83.80;;;;;;4982101;28;20023;-80
2022/10/31 17:28:54;;;;;;;5.82;2.38;;;16.90;83.80;;;;;;4978628;28;20031;-78
2022/10/31 17:31:29;;;;;;;7.35;2.45;;;16.90;83.90;;;;;;4963151;28;20051;-77
2022/10/31 17:33:55;;;;;;;5.00;2.53;;;16.90;84.10;;;;;;4957722;28;20050;-79
2022/10/31 17:36:50;;;;;;;4.93;2.05;;;16.90;84.20;;;;;;4942076;29;20032;-78
2022/10/31 17:39:16;;;;;;;7.43;2.33;;;16.80;84.40;;;;;;4941657;29;20629;-78
2022/10/31 17:41:42;;;;;;;5.43;2.70;;;16.80;84.40;;;;;;4941996;29;20040;-78
2022/10/31 17:44:10;;;;;;;6.40;2.38;;;16.80;84.50;;;;;;4948283;29;20043;-80
2022/10/31 17:46:36;;;;;;;7.68;3.90;;;16.80;84.60;;;;;;4948905;29;20087;-77
2022/10/31 17:49:03;;;;;;;6.07;2.47;;;16.80;84.70;;;;;;4955857;29;20474;-78
2022/10/31 17:51:29;;;;;;;9.38;3.22;;;16.80;85.00;;;;;;4956402;28;20024;-77
2022/10/31 17:53:57;;;;;;;7.32;2.78;;;16.80;85.00;;;;;;4963058;28;20035;-83
2022/10/31 17:56:22;;;;;;;6.40;3.08;;;16.70;85.00;;;;;;4939420;29;20031;-78
2022/10/31 17:58:48;;;;;;;5.07;2.17;;;16.80;85.10;;;;;;4962383;28;20655;-77
2022/10/31 18:01:16;;;;;;;6.88;2.58;;;16.70;85.20;;;;;;4957273;28;20106;-78
2022/10/31 18:03:42;;;;;;;7.53;3.08;;;16.70;85.30;;;;;;4956996;29;20039;-78
2022/10/31 18:06:09;;;;;;;6.32;2.78;;;16.70;85.40;;;;;;4956677;28;20031;-78
2022/10/31 18:08:38;;;;;;;6.47;2.53;;;16.60;85.60;;;;;;4955714;29;20042;-78
2022/10/31 18:11:13;;;;;;;9.02;2.85;;;16.60;85.60;;;;;;4956651;28;20089;-78
2022/10/31 18:13:39;;;;;;;9.82;3.20;;;16.60;85.60;;;;;;4955473;28;20032;-79
2022/10/31 18:16:19;;;;;;;4.68;2.10;;;16.60;85.60;;;;;;4956764;28;20031;-79
2022/10/31 18:18:52;;;;;;;6.28;2.70;;;16.40;85.90;;;;;;4950210;28;20512;-77
2022/10/31 18:21:18;;;;;;;8.48;3.42;;;16.40;85.90;;;;;;4942031;29;20043;-78
2022/10/31 18:23:44;;;;;;;7.45;3.28;;;16.40;86.00;;;;;;4956286;29;20038;-79
2022/10/31 18:26:10;;;;;;;10.15;2.90;;;16.40;86.00;;;;;;4955729;28;20030;-82
2022/10/31 18:28:36;;;;;;;6.45;3.05;;;16.40;85.90;;;;;;4955332;29;20035;-76
2022/10/31 18:31:03;;;;;;;6.78;2.97;;;16.40;86.00;;;;;;4953625;28;20142;-77
2022/10/31 18:33:41;;;;;;;2.58;1.83;;;16.40;85.90;;;;;;4961136;28;20031;-88
2022/10/31 18:36:07;;;;;;;6.00;2.95;;;16.30;85.90;;;;;;4939567;29;20062;-80
2022/10/31 18:38:35;;;;;;;7.32;2.20;;;16.30;86.10;;;;;;4954321;29;20046;-81
2022/10/31 18:41:01;;;;;;;4.43;2.03;;;16.30;86.00;;;;;;4935786;28;20027;-81